Time;durP1;ratioP1;P1;durP2;ratioP2;P2;SDS_P1;SDS_P2;PMS_P1;PMS_P2;Temp;Humidity;BMP_temperature;BMP_pressure;BME280_temperature;BME280_humidity;BME280_pressure;Samples;Min_cycle;Max_cycle;Signal;HPM_P1;HPM_P2
2023/09/13 00:01:33;;;;;;;0.90;0.90;;;;;;;21.06;100.00;96060.06;5032921;27;105395;-83
2023/09/13 00:04:02;;;;;;;1.07;1.07;;;;;;;20.92;100.00;96068.38;5032278;27;105634;-83
2023/09/13 00:06:29;;;;;;;1.83;1.30;;;;;;;20.40;100.00;96071.50;5032739;27;102194;-82
2023/09/13 00:08:56;;;;;;;1.60;1.50;;;;;;;20.23;100.00;96072.31;5033090;27;105173;-82
2023/09/13 00:11:23;;;;;;;1.00;1.00;;;;;;;20.10;100.00;96067.84;5035531;27;105965;-82
2023/09/13 00:13:50;;;;;;;1.30;1.20;;;;;;;20.02;100.00;96065.13;5032792;27;104164;-82
2023/09/13 00:16:17;;;;;;;2.27;1.33;;;;;;;20.07;100.00;96065.81;5032305;27;104071;-82
2023/09/13 00:18:44;;;;;;;1.50;1.40;;;;;;;20.13;100.00;96064.53;5032727;27;102102;-82
2023/09/13 00:21:12;;;;;;;1.87;1.50;;;;;;;20.16;100.00;96074.69;5032436;27;105163;-82
2023/09/13 00:23:39;;;;;;;1.60;1.50;;;;;;;20.19;100.00;96075.94;5031735;27;104197;-80
2023/09/13 00:26:08;;;;;;;4.37;2.00;;;;;;;20.13;100.00;96080.72;5032817;27;102006;-79
2023/09/13 00:28:35;;;;;;;5.13;2.10;;;;;;;20.05;100.00;96094.97;5032649;27;105279;-79
2023/09/13 00:31:01;;;;;;;2.60;2.03;;;;;;;19.81;100.00;96101.94;5031351;27;105691;-79
2023/09/13 00:33:29;;;;;;;4.83;2.00;;;;;;;19.70;100.00;96104.16;5035883;27;101927;-79
2023/09/13 00:35:57;;;;;;;3.63;1.80;;;;;;;19.71;100.00;96105.72;5031206;27;105538;-79
2023/09/13 00:38:26;;;;;;;3.23;1.90;;;;;;;19.71;100.00;96105.72;5032336;27;102013;-79
2023/09/13 00:40:53;;;;;;;1.60;1.50;;;;;;;19.57;100.00;96115.06;5032107;27;105492;-80
2023/09/13 00:43:20;;;;;;;1.70;1.60;;;;;;;19.54;100.00;96118.38;5031698;27;105932;-80
2023/09/13 00:45:50;;;;;;;2.80;1.77;;;;;;;19.52;100.00;96115.97;5032644;27;102349;-81
2023/09/13 00:48:18;;;;;;;2.80;1.80;;;;;;;19.51;100.00;96113.63;5050810;27;102985;-81
2023/09/13 00:50:47;;;;;;;2.47;1.80;;;;;;;19.47;100.00;96115.34;5031515;27;105484;-81
2023/09/13 00:53:15;;;;;;;2.27;1.70;;;;;;;19.40;100.00;96128.50;5032063;27;101877;-81
2023/09/13 00:55:44;;;;;;;2.20;1.80;;;;;;;19.39;100.00;96140.38;5035187;27;104502;-81
2023/09/13 00:58:12;;;;;;;2.93;2.13;;;;;;;19.23;100.00;96144.59;5032352;27;102068;-80
2023/09/13 01:00:39;;;;;;;4.73;1.80;;;;;;;19.09;100.00;96154.63;5032049;27;105850;-80
2023/09/13 01:03:07;;;;;;;2.20;2.00;;;;;;;19.06;100.00;96161.44;5031656;27;105229;-80
2023/09/13 01:05:36;;;;;;;3.27;2.23;;;;;;;18.91;100.00;96163.75;5031893;27;102102;-80
2023/09/13 01:08:04;;;;;;;3.53;2.03;;;;;;;18.93;100.00;96172.31;5031981;27;105288;-80
2023/09/13 01:10:31;;;;;;;5.00;2.43;;;;;;;18.91;100.00;96163.75;5031318;27;105918;-81
2023/09/13 01:12:59;;;;;;;2.77;2.13;;;;;;;18.94;100.00;96163.91;5031726;27;101981;-81
2023/09/13 01:15:29;;;;;;;2.53;1.97;;;;;;;18.92;100.00;96165.31;5032082;27;104044;-81
2023/09/13 01:18:02;;;;;;;4.37;2.40;;;;;;;18.90;100.00;96162.94;5034599;27;102167;-81
2023/09/13 01:20:55;;;;;;;2.00;1.90;;;;;;;18.90;100.00;96171.03;5031732;27;105688;-81
2023/09/13 01:23:51;;;;;;;3.20;2.07;;;;;;;18.88;100.00;96164.34;5031002;27;105264;-81
2023/09/13 01:26:39;;;;;;;3.70;2.60;;;;;;;19.07;100.00;96163.03;5031633;27;101882;-79
2023/09/13 01:29:14;;;;;;;3.80;2.30;;;;;;;18.91;100.00;96161.03;5032063;27;105572;-80
2023/09/13 01:31:42;;;;;;;3.93;2.20;;;;;;;19.00;100.00;96157.28;5030983;27;105081;-80
2023/09/13 01:34:10;;;;;;;4.03;2.57;;;;;;;19.02;100.00;96157.00;5031697;27;101931;-80
2023/09/13 01:36:37;;;;;;;2.83;2.10;;;;;;;19.03;100.00;96159.34;5024150;27;104961;-80
2023/09/13 01:39:05;;;;;;;2.57;2.37;;;;;;;19.03;100.00;96145.09;5034714;27;105665;-80
2023/09/13 01:41:45;;;;;;;3.53;2.87;;;;;;;19.16;100.00;96147.72;5031744;27;105497;-80
2023/09/13 01:44:15;;;;;;;3.93;3.00;;;;;;;19.07;100.00;96148.78;5033917;27;105822;-80
2023/09/13 01:46:45;;;;;;;4.27;2.47;;;;;;;19.09;100.00;96152.75;5035287;27;102608;-79
2023/09/13 01:49:13;;;;;;;2.63;2.30;;;;;;;18.87;100.00;96143.91;5034785;27;105513;-79
2023/09/13 01:51:42;;;;;;;2.50;2.30;;;;;;;18.84;100.00;96152.59;5034253;27;105863;-79
2023/09/13 01:54:09;;;;;;;2.43;2.07;;;;;;;18.96;100.00;96155.53;5034901;27;101972;-78
2023/09/13 01:56:35;;;;;;;2.43;2.20;;;;;;;18.92;100.00;96154.56;5035029;27;105120;-78
2023/09/13 01:59:02;;;;;;;4.00;2.33;;;;;;;19.03;100.00;96153.19;5034387;27;105983;-78
2023/09/13 02:01:31;;;;;;;3.23;2.20;;;;;;;19.06;100.00;96157.94;5038364;27;102057;-78
2023/09/13 02:03:58;;;;;;;2.20;2.03;;;;;;;19.00;100.00;96151.09;5033824;27;105174;-78
2023/09/13 02:06:25;;;;;;;2.80;2.10;;;;;;;18.97;100.00;96147.13;5034768;27;102001;-78
2023/09/13 02:08:52;;;;;;;3.53;2.30;;;;;;;19.19;100.00;96152.47;5053077;27;103007;-81
2023/09/13 02:11:18;;;;;;;3.07;2.50;;;;;;;19.14;100.00;96151.81;5034209;27;105345;-82
2023/09/13 02:13:46;;;;;;;3.23;2.20;;;;;;;19.11;100.00;96158.63;5034177;27;101961;-82
2023/09/13 02:16:13;;;;;;;3.77;2.70;;;;;;;19.36;100.00;96159.88;5034452;27;105776;-82
2023/09/13 02:18:42;;;;;;;3.03;2.33;;;;;;;19.11;100.00;96152.41;5033803;27;103926;-80
2023/09/13 02:21:09;;;;;;;3.53;2.23;;;;;;;18.69;100.00;96161.06;5034840;27;102063;-80
2023/09/13 02:23:36;;;;;;;3.40;2.40;;;;;;;18.99;100.00;96165.69;5037189;27;104302;-80
2023/09/13 02:26:04;;;;;;;2.87;2.33;;;;;;;18.97;100.00;96163.28;5035121;27;101946;-91
2023/09/13 02:28:31;;;;;;;2.83;2.53;;;;;;;19.01;100.00;96166.19;5035321;27;105032;-91
2023/09/13 02:30:58;;;;;;;2.60;2.40;;;;;;;19.04;100.00;96160.97;5034408;27;104424;-91
2023/09/13 02:33:25;;;;;;;3.03;2.83;;;;;;;19.21;100.00;96157.56;5034167;27;101974;-91
2023/09/13 02:35:53;;;;;;;2.33;1.90;;;;;;;19.26;100.00;96165.53;5033856;27;105453;-90
2023/09/13 02:38:20;;;;;;;2.37;2.17;;;;;;;18.99;100.00;96166.50;5034074;27;105475;-88
2023/09/13 02:40:47;;;;;;;2.50;2.30;;;;;;;19.00;100.00;96161.88;5052640;27;102204;-88
2023/09/13 02:43:14;;;;;;;2.47;2.27;;;;;;;18.95;100.00;96162.81;5034062;27;105326;-88
2023/09/13 02:45:41;;;;;;;2.43;2.23;;;;;;;18.72;100.00;96172.03;5037002;27;105112;-88
2023/09/13 02:48:08;;;;;;;2.80;2.13;;;;;;;18.68;100.00;96175.59;5034139;27;104950;-90
2023/09/13 02:50:35;;;;;;;2.70;2.10;;;;;;;18.64;100.00;96177.34;5017315;27;105331;-90
2023/09/13 02:53:03;;;;;;;2.33;2.13;;;;;;;18.77;100.00;96176.47;5034443;27;102243;-91
2023/09/13 02:55:30;;;;;;;2.40;2.20;;;;;;;18.78;100.00;96186.16;5034588;27;105236;-91
2023/09/13 02:57:57;;;;;;;3.60;2.57;;;;;;;18.74;100.00;96187.88;5034015;27;105646;-91
2023/09/13 03:00:24;;;;;;;4.33;2.50;;;;;;;18.71;100.00;96191.16;5034570;27;101947;-91
2023/09/13 03:02:51;;;;;;;3.50;2.83;;;;;;;18.82;100.00;96192.53;5034365;27;105080;-91
2023/09/13 03:05:19;;;;;;;4.13;2.83;;;;;;;18.69;100.00;96193.38;5033604;27;105080;-91
2023/09/13 03:07:46;;;;;;;4.57;2.90;;;;;;;18.70;100.00;96197.66;5037847;27;101883;-91
2023/09/13 03:10:15;;;;;;;2.53;2.33;;;;;;;18.64;100.00;96202.38;5033530;27;105043;-91
2023/09/13 03:12:42;;;;;;;3.27;2.50;;;;;;;18.68;100.00;96205.25;5034171;27;102017;-91
2023/09/13 03:15:10;;;;;;;3.00;2.70;;;;;;;18.84;100.00;96211.84;5034401;27;104857;-91
2023/09/13 03:17:37;;;;;;;4.93;2.80;;;;;;;18.80;100.00;96210.91;5033259;27;105056;-93
2023/09/13 03:20:05;;;;;;;3.07;2.70;;;;;;;18.73;100.00;96213.19;5034422;27;101906;-92
2023/09/13 03:22:34;;;;;;;2.47;2.27;;;;;;;18.66;100.00;96210.16;5033684;27;104694;-89
2023/09/13 03:25:00;;;;;;;5.30;2.80;;;;;;;18.78;100.00;96207.69;5032960;27;105312;-88
2023/09/13 03:27:29;;;;;;;3.23;2.93;;;;;;;18.67;100.00;96200.97;5037145;27;101895;-82
2023/09/13 03:29:56;;;;;;;2.70;2.50;;;;;;;18.60;100.00;96201.41;5033080;27;105378;-82
2023/09/13 03:32:23;;;;;;;2.97;2.57;;;;;;;18.64;100.00;96201.59;5033217;27;102035;-82
2023/09/13 03:34:51;;;;;;;4.73;3.20;;;;;;;18.84;100.00;96193.00;5032522;27;104952;-82
2023/09/13 03:37:19;;;;;;;3.07;2.70;;;;;;;18.78;100.00;96205.00;5032850;27;105586;-82
2023/09/13 03:39:45;;;;;;;3.47;2.70;;;;;;;18.73;100.00;96194.34;5033630;27;102028;-82
2023/09/13 03:42:12;;;;;;;4.57;2.80;;;;;;;18.64;100.00;96196.19;5051392;27;102836;-83
2023/09/13 03:44:41;;;;;;;2.97;2.70;;;;;;;18.63;100.00;96197.31;5032468;27;105475;-83
2023/09/13 03:47:08;;;;;;;3.07;2.63;;;;;;;18.54;100.00;96212.59;5032780;27;101891;-83
2023/09/13 03:49:36;;;;;;;3.30;2.87;;;;;;;18.74;100.00;96217.50;5036198;27;105351;-83
2023/09/13 03:52:03;;;;;;;3.50;2.70;;;;;;;18.66;100.00;96220.91;5033156;27;102856;-83
2023/09/13 03:54:30;;;;;;;2.93;2.73;;;;;;;18.58;100.00;96213.59;5033065;27;104996;-83
2023/09/13 03:56:58;;;;;;;3.63;2.80;;;;;;;18.63;100.00;96222.31;5032272;27;104898;-82
2023/09/13 03:59:25;;;;;;;3.07;2.60;;;;;;;18.64;100.00;96212.38;5033153;27;102208;-83
2023/09/13 04:01:54;;;;;;;4.20;3.17;;;;;;;18.75;100.00;96224.50;5032952;27;103995;-85
2023/09/13 04:04:21;;;;;;;4.90;2.97;;;;;;;18.65;100.00;96219.34;5050065;27;102891;-83
2023/09/13 04:06:48;;;;;;;7.63;3.30;;;;;;;18.76;100.00;96229.59;5032569;27;101986;-83
2023/09/13 04:09:15;;;;;;;3.20;2.80;;;;;;;18.42;100.00;96225.81;5032824;27;105964;-85
2023/09/13 04:11:42;;;;;;;3.37;3.00;;;;;;;18.51;100.00;96226.66;5053827;27;103130;-83
2023/09/13 04:14:09;;;;;;;5.27;2.93;;;;;;;18.44;100.00;96228.97;5032277;27;104839;-84
2023/09/13 04:16:36;;;;;;;3.23;2.93;;;;;;;18.39;100.00;96226.38;5032110;27;105734;-81
2023/09/13 04:19:07;;;;;;;4.47;3.27;;;;;;;18.40;100.00;96228.78;5051002;27;101941;-81
2023/09/13 04:21:34;;;;;;;3.47;2.90;;;;;;;18.50;100.00;96225.06;5032548;27;103840;-87
2023/09/13 04:24:02;;;;;;;3.57;3.23;;;;;;;18.49;100.00;96231.56;5032209;27;104458;-85
2023/09/13 04:26:30;;;;;;;4.00;3.10;;;;;;;18.59;100.00;96232.09;5032797;27;101967;-85
2023/09/13 04:28:57;;;;;;;6.53;3.50;;;;;;;18.45;100.00;96235.94;5032562;27;104203;-83
2023/09/13 04:31:23;;;;;;;3.90;3.03;;;;;;;18.42;100.00;96237.34;5031995;27;105529;-83
2023/09/13 04:33:52;;;;;;;4.80;3.40;;;;;;;18.32;100.00;96242.16;5054223;27;101853;-84
2023/09/13 04:36:23;;;;;;;3.20;3.00;;;;;;;18.38;100.00;96252.53;5031255;27;105879;-83
2023/09/13 04:38:51;;;;;;;5.57;3.33;;;;;;;18.46;100.00;96259.06;5032602;27;101888;-84
2023/09/13 04:41:18;;;;;;;5.77;3.47;;;;;;;18.46;100.00;96261.78;5032598;27;104096;-81
2023/09/13 04:43:45;;;;;;;4.97;3.30;;;;;;;18.85;100.00;96259.28;5031623;27;103835;-81
2023/09/13 04:46:14;;;;;;;4.03;3.13;;;;;;;18.83;100.00;96253.38;5032376;27;101914;-84
2023/09/13 04:48:41;;;;;;;7.43;3.23;;;;;;;18.92;100.00;96262.34;5032533;27;105401;-83
2023/09/13 04:51:10;;;;;;;4.33;3.60;;;;;;;18.79;100.00;96257.78;5031688;27;105552;-81
2023/09/13 04:53:40;;;;;;;5.10;3.20;;;;;;;18.84;100.00;96252.28;5032431;27;101997;-83
2023/09/13 04:56:07;;;;;;;3.50;3.20;;;;;;;18.98;100.00;96240.38;5035186;27;106544;-88
2023/09/13 04:58:40;;;;;;;3.93;3.40;;;;;;;18.80;100.00;96248.63;5032483;27;101894;-90
2023/09/13 05:01:07;;;;;;;5.13;3.17;;;;;;;18.69;100.00;96242.66;5032540;27;104813;-86
2023/09/13 05:03:34;;;;;;;3.77;3.40;;;;;;;18.80;100.00;96254.78;5031563;27;105063;-82
2023/09/13 05:06:01;;;;;;;5.63;3.60;;;;;;;18.83;100.00;96253.38;5032143;27;101987;-81
2023/09/13 05:08:28;;;;;;;3.77;3.20;;;;;;;19.22;100.00;96253.53;5050426;27;102593;-81
2023/09/13 05:10:59;;;;;;;3.53;3.10;;;;;;;19.30;100.00;96252.81;5031549;27;105755;-83
2023/09/13 05:13:30;;;;;;;4.07;3.20;;;;;;;19.55;100.00;96258.34;5031952;27;101990;-83
2023/09/13 05:15:57;;;;;;;3.53;3.23;;;;;;;19.42;100.00;96258.41;5032051;27;104933;-81
2023/09/13 05:18:23;;;;;;;4.47;3.37;;;;;;;19.51;100.00;96251.19;5036643;27;105309;-81
2023/09/13 05:20:50;;;;;;;3.57;3.27;;;;;;;19.60;100.00;96249.31;5035534;27;105337;-81
2023/09/13 05:23:17;;;;;;;4.97;3.30;;;;;;;19.56;100.00;96251.81;5052893;27;102816;-80
2023/09/13 05:25:45;;;;;;;4.13;3.30;;;;;;;19.62;100.00;96247.09;5035638;27;102043;-80
2023/09/13 05:28:14;;;;;;;8.03;3.47;;;;;;;19.65;100.00;96249.97;5035437;27;103994;-80
2023/09/13 05:30:42;;;;;;;4.90;3.47;;;;;;;19.63;100.00;96259.50;5034879;27;105396;-80
2023/09/13 05:33:09;;;;;;;3.50;3.20;;;;;;;19.60;100.00;96260.09;5035481;27;101950;-80
2023/09/13 05:35:36;;;;;;;3.40;3.07;;;;;;;19.65;100.00;96265.34;5034854;27;105223;-81
2023/09/13 05:38:03;;;;;;;5.90;3.10;;;;;;;19.44;100.00;96261.59;5038152;27;105184;-81
2023/09/13 05:40:30;;;;;;;3.63;3.07;;;;;;;19.36;100.00;96262.34;5035342;27;104859;-81
2023/09/13 05:42:57;;;;;;;3.83;3.23;;;;;;;19.39;100.00;96264.41;5017653;27;106347;-81
2023/09/13 05:45:25;;;;;;;6.70;3.07;;;;;;;19.30;100.00;96263.59;5035146;27;101988;-80
2023/09/13 05:47:52;;;;;;;3.43;2.67;;;;;;;19.27;100.00;96264.19;5035172;27;105033;-81
2023/09/13 05:50:19;;;;;;;3.90;2.90;;;;;;;19.13;100.00;96263.44;5034693;27;106044;-81
2023/09/13 05:52:46;;;;;;;4.10;3.07;;;;;;;19.10;100.00;96266.75;5035101;27;102018;-81
2023/09/13 05:55:13;;;;;;;3.50;2.77;;;;;;;19.08;100.00;96268.97;5034876;27;105711;-81
2023/09/13 05:57:40;;;;;;;4.50;3.30;;;;;;;19.03;100.00;96274.47;5034224;27;105667;-81
2023/09/13 06:00:08;;;;;;;4.33;3.07;;;;;;;19.18;100.00;96272.19;5038413;27;102054;-81
2023/09/13 06:02:39;;;;;;;3.80;2.90;;;;;;;19.30;100.00;96274.38;5048874;27;102590;-81
2023/09/13 06:05:09;;;;;;;3.10;2.73;;;;;;;19.22;100.00;96273.22;5035031;27;101868;-81
2023/09/13 06:07:35;;;;;;;3.53;2.97;;;;;;;19.30;100.00;96277.06;5034847;27;104816;-80
2023/09/13 06:10:03;;;;;;;3.30;3.00;;;;;;;19.25;100.00;96277.19;5033744;27;105761;-81
2023/09/13 06:12:30;;;;;;;4.13;3.20;;;;;;;19.35;100.00;96272.34;5034219;27;102012;-81
2023/09/13 06:14:59;;;;;;;6.20;3.10;;;;;;;19.56;100.00;96284.19;5034345;27;104055;-81
2023/09/13 06:17:26;;;;;;;3.20;2.90;;;;;;;19.59;100.00;96282.78;5034521;27;105360;-80
2023/09/13 06:19:54;;;;;;;3.03;2.70;;;;;;;19.67;100.00;96279.34;5034307;27;101966;-81
2023/09/13 06:22:21;;;;;;;4.67;2.90;;;;;;;19.72;100.00;96282.69;5055389;27;102161;-81
2023/09/13 06:24:50;;;;;;;2.70;2.50;;;;;;;19.77;100.00;96282.56;5034189;27;102229;-81
2023/09/13 06:27:17;;;;;;;5.53;3.30;;;;;;;19.88;100.00;96278.50;5034689;27;105110;-81
2023/09/13 06:29:44;;;;;;;3.87;3.17;;;;;;;19.93;100.00;96286.44;5033479;27;105827;-81
2023/09/13 06:32:11;;;;;;;4.40;3.07;;;;;;;19.96;100.00;96290.44;5034881;27;101996;-81
2023/09/13 06:34:38;;;;;;;4.53;2.87;;;;;;;19.79;100.00;96282.25;5033076;27;105209;-81
2023/09/13 06:37:07;;;;;;;3.30;2.40;;;;;;;19.62;100.00;96293.75;5033701;27;105888;-81
2023/09/13 06:39:34;;;;;;;3.37;2.80;;;;;;;19.55;100.00;96303.38;5034311;27;102142;-81
2023/09/13 06:42:01;;;;;;;3.17;2.50;;;;;;;19.45;100.00;96314.44;5033933;27;105334;-81
2023/09/13 06:44:28;;;;;;;5.47;2.93;;;;;;;19.30;100.00;96315.59;5033959;28;105015;-81
2023/09/13 06:46:55;;;;;;;5.13;2.90;;;;;;;19.30;100.00;96325.59;5014274;28;105414;-81
2023/09/13 06:49:22;;;;;;;5.37;2.93;;;;;;;19.21;100.00;96338.19;5014636;27;105762;-80
2023/09/13 06:51:48;;;;;;;4.33;2.97;;;;;;;19.14;100.00;96345.91;5033419;27;102121;-80
2023/09/13 06:54:18;;;;;;;4.50;3.00;;;;;;;18.98;100.00;96341.97;5034046;27;104192;-81
2023/09/13 06:56:45;;;;;;;5.00;2.93;;;;;;;18.97;100.00;96356.53;5051288;27;103044;-80
2023/09/13 06:59:12;;;;;;;4.23;3.27;;;;;;;18.83;100.00;96371.94;5033499;27;102206;-81
2023/09/13 07:01:39;;;;;;;4.23;2.60;;;;;;;18.76;100.00;96385.03;5033277;27;105304;-81
2023/09/13 07:04:06;;;;;;;3.27;2.67;;;;;;;18.87;100.00;96386.41;5032994;27;105565;-82
2023/09/13 07:06:33;;;;;;;4.27;2.70;;;;;;;18.65;100.00;96399.81;5055258;27;101906;-81
2023/09/13 07:09:00;;;;;;;2.90;2.20;;;;;;;18.67;100.00;96394.91;5032944;27;105689;-81
2023/09/13 07:11:35;;;;;;;6.17;2.70;;;;;;;18.74;100.00;96401.50;5031169;27;103143;-80
2023/09/13 07:14:03;;;;;;;3.67;2.47;;;;;;;18.69;100.00;96393.50;5038022;27;105559;-81
2023/09/13 07:16:37;;;;;;;7.57;2.70;;;;;;;18.77;100.00;96389.31;5047594;27;105661;-79
2023/09/13 07:19:10;;;;;;;3.13;2.60;;;;;;;18.46;100.00;96415.25;5032624;27;102088;-79
2023/09/13 07:21:40;;;;;;;3.00;1.93;;;;;;;18.32;100.00;96404.47;5032328;27;104966;-80
2023/09/13 07:24:12;;;;;;;5.63;2.53;;;;;;;18.39;100.00;96402.22;5031738;27;106317;-81
2023/09/13 07:26:47;;;;;;;2.90;2.17;;;;;;;18.25;100.00;96395.97;5022497;28;101882;-81
2023/09/13 07:29:14;;;;;;;5.30;1.80;;;;;;;18.12;100.00;96406.72;5021945;27;104924;-81
2023/09/13 07:31:41;;;;;;;6.73;2.73;;;;;;;18.07;100.00;96404.13;5033090;27;103198;-79
2023/09/13 07:34:08;;;;;;;2.43;2.00;;;;;;;17.88;100.00;96409.56;5033287;27;103678;-79
2023/09/13 07:36:35;;;;;;;5.33;2.37;;;;;;;17.74;100.00;96413.31;5007522;27;105726;-78
2023/09/13 07:39:03;;;;;;;2.30;2.10;;;;;;;17.68;100.00;96420.69;4989665;28;102292;-78
2023/09/13 07:41:30;;;;;;;3.93;2.30;;;;;;;17.80;100.00;96423.72;5005066;28;104917;-79
2023/09/13 07:43:59;;;;;;;4.20;2.20;;;;;;;17.83;100.00;96417.72;5008717;28;104651;-79
2023/09/13 07:46:25;;;;;;;3.60;2.53;;;;;;;17.97;100.00;96413.19;5010999;28;101816;-78
2023/09/13 07:48:52;;;;;;;5.23;2.70;;;;;;;18.19;100.00;96409.81;5012203;28;105463;-78
2023/09/13 07:51:20;;;;;;;4.27;2.87;;;;;;;18.38;100.00;96400.63;5008883;28;102000;-78
2023/09/13 07:53:47;;;;;;;6.70;2.80;;;;;;;18.49;100.00;96393.13;5008963;28;105634;-79
2023/09/13 07:56:14;;;;;;;5.97;3.30;;;;;;;18.48;100.00;96386.16;5008885;28;105474;-79
2023/09/13 07:58:41;;;;;;;5.37;3.00;;;;;;;18.45;100.00;96378.66;5009047;28;102166;-79
2023/09/13 08:01:11;;;;;;;5.77;3.30;;;;;;;18.75;100.00;96386.91;5009410;28;104873;-79
2023/09/13 08:03:38;;;;;;;6.07;3.50;;;;;;;18.93;100.00;96390.59;5004970;28;104758;-79
2023/09/13 08:06:05;;;;;;;6.63;3.73;;;;;;;19.05;100.00;96396.25;5000353;28;101890;-80
2023/09/13 08:08:33;;;;;;;5.33;3.40;;;;;;;19.28;100.00;96398.72;5008954;28;105819;-80
2023/09/13 08:11:00;;;;;;;5.47;3.70;;;;;;;19.21;100.00;96397.50;5011584;28;104689;-80
2023/09/13 08:13:27;;;;;;;5.80;3.70;;;;;;;19.21;100.00;96416.38;5008869;28;104494;-81
2023/09/13 08:15:53;;;;;;;6.87;3.77;;;;;;;19.28;100.00;96422.16;5008507;28;106145;-80
2023/09/13 08:18:23;;;;;;;4.73;3.17;;;;;;;19.34;100.00;96432.53;5008881;28;102398;-80
2023/09/13 08:20:56;;;;;;;4.40;2.93;;;;;;;19.24;100.00;96437.38;5009822;28;103764;-83
2023/09/13 08:23:24;;;;;;;6.73;3.13;;;;;;;19.19;100.00;96429.38;5009262;28;102813;-81
2023/09/13 08:25:50;;;;;;;6.00;3.03;;;;;;;19.18;100.00;96438.56;5007819;28;101956;-80
2023/09/13 08:28:17;;;;;;;3.70;3.00;;;;;;;19.28;100.00;96441.84;5008842;28;105517;-81
2023/09/13 08:30:46;;;;;;;4.60;2.73;;;;;;;19.17;100.00;96442.34;5008217;28;105596;-81
2023/09/13 08:33:13;;;;;;;3.67;2.97;;;;;;;19.27;100.00;96439.44;5011643;28;102337;-81
2023/09/13 08:35:41;;;;;;;4.77;3.00;;;;;;;19.35;100.00;96436.06;5015086;28;105007;-81
2023/09/13 08:38:08;;;;;;;5.63;3.03;;;;;;;19.42;100.00;96429.13;5030529;28;101827;-81
2023/09/13 08:40:41;;;;;;;8.20;3.70;;;;;;;19.38;100.00;96430.03;5030408;28;102525;-80
2023/09/13 08:43:09;;;;;;;3.53;3.03;;;;;;;19.33;100.00;96435.53;5028199;28;105558;-80
2023/09/13 08:45:37;;;;;;;7.53;3.20;;;;;;;19.30;100.00;96438.84;5029102;28;101868;-80
2023/09/13 08:48:07;;;;;;;5.57;3.13;;;;;;;19.37;100.00;96442.75;5029070;28;105490;-80
2023/09/13 08:50:34;;;;;;;3.43;3.10;;;;;;;19.55;100.00;96451.75;5028177;28;105545;-81
2023/09/13 08:53:04;;;;;;;5.47;3.30;;;;;;;19.52;100.00;96453.16;5031773;27;101970;-82
2023/09/13 08:55:32;;;;;;;5.23;3.20;;;;;;;19.80;100.00;96453.88;5035107;28;104883;-84
2023/09/13 08:58:00;;;;;;;4.40;3.50;;;;;;;19.95;100.00;96440.00;5032345;28;102002;-81
2023/09/13 09:00:31;;;;;;;8.17;3.27;;;;;;;20.18;100.00;96441.59;5031660;28;105345;-80
2023/09/13 09:03:02;;;;;;;5.57;3.37;;;;;;;20.26;100.00;96440.84;5032714;28;102795;-81
2023/09/13 09:05:32;;;;;;;4.53;3.50;;;;;;;20.02;100.00;96438.47;5032073;28;101940;-81
2023/09/13 09:08:01;;;;;;;4.33;3.17;;;;;;;20.04;100.00;96428.16;5032390;28;105740;-80
2023/09/13 09:10:31;;;;;;;4.20;3.60;;;;;;;20.43;100.00;96425.50;5031446;28;104464;-80
2023/09/13 09:13:00;;;;;;;4.27;3.47;;;;;;;20.83;100.00;96423.59;5031885;28;101928;-79
2023/09/13 09:15:28;;;;;;;5.27;3.07;;;;;;;20.98;100.00;96428.59;5031774;28;103618;-81
2023/09/13 09:17:57;;;;;;;3.70;2.77;;;;;;;21.13;100.00;96422.72;5034182;28;105230;-81
2023/09/13 09:20:28;;;;;;;5.47;2.70;;;;;;;21.16;100.00;96430.22;5030200;28;105526;-81
2023/09/13 09:22:58;;;;;;;3.87;2.30;;;;;;;21.17;100.00;96418.28;5031302;28;104276;-81
2023/09/13 09:25:26;;;;;;;2.60;2.33;;;;;;;21.51;100.00;96421.81;5031516;28;102394;-80
2023/09/13 09:27:54;;;;;;;3.33;2.57;;;;;;;21.86;100.00;96422.63;5030066;28;104209;-81
2023/09/13 09:30:31;;;;;;;2.17;2.03;;;;;;;22.19;100.00;96410.91;5030968;28;105216;-81
2023/09/13 09:33:03;;;;;;;3.13;2.57;;;;;;;22.56;100.00;96412.09;5031487;28;102100;-81
2023/09/13 09:35:30;;;;;;;2.50;2.30;;;;;;;22.85;100.00;96407.50;5031140;28;105014;-81
2023/09/13 09:37:57;;;;;;;2.23;2.03;;;;;;;22.55;100.00;96402.41;5030486;28;105697;-81
2023/09/13 09:40:25;;;;;;;2.23;1.90;;;;;;;22.90;100.00;96401.91;5034645;28;101999;-79
2023/09/13 09:42:55;;;;;;;3.07;1.77;;;;;;;23.28;100.00;96397.19;5029425;28;105388;-80
2023/09/13 09:45:22;;;;;;;1.00;1.00;;;;;;;23.31;100.00;96388.38;5030781;28;102382;-81
2023/09/13 09:47:51;;;;;;;2.50;1.47;;;;;;;23.46;100.00;96392.41;5031266;28;105227;-81
2023/09/13 09:50:18;;;;;;;1.30;1.20;;;;;;;23.84;100.00;96391.13;5029906;28;105240;-81
2023/09/13 09:52:50;;;;;;;1.20;1.20;;;;;;;23.90;100.00;96397.16;5030695;28;102261;-81
2023/09/13 09:55:21;;;;;;;1.63;1.50;;;;;;;23.74;100.00;96396.16;5030712;28;103950;-81
2023/09/13 09:57:50;;;;;;;1.40;1.30;;;;;;;24.00;100.00;96385.88;5030128;28;105390;-81
2023/09/13 10:00:19;;;;;;;1.10;1.10;;;;;;;23.85;100.00;96400.06;5034148;28;101969;-81
2023/09/13 10:02:47;;;;;;;1.53;1.43;;;;;;;24.55;100.00;96399.81;5030628;27;102869;-81
2023/09/13 10:05:16;;;;;;;1.40;1.30;;;;;;;24.88;100.00;96386.94;5030080;28;101964;-81
2023/09/13 10:07:51;;;;;;;1.27;1.20;;;;;;;24.42;100.00;96390.84;5030594;28;105464;-81
2023/09/13 10:10:29;;;;;;;2.07;1.40;;;;;;;24.03;100.00;96388.72;5030002;28;105326;-80
2023/09/13 10:12:56;;;;;;;1.57;1.47;;;;;;;24.02;100.00;96391.78;5029737;28;101932;-80
2023/09/13 10:15:26;;;;;;;1.60;1.37;;;;;;;24.07;100.00;96388.84;5030215;28;106195;-80
2023/09/13 10:17:55;;;;;;;1.40;1.30;;;;;;;24.47;100.00;96382.47;5030902;27;103137;-80
2023/09/13 10:20:24;;;;;;;3.70;1.70;;;;;;;24.82;100.00;96377.41;5030313;28;102500;-80
2023/09/13 10:22:57;;;;;;;1.60;1.40;;;;;;;24.62;100.00;96383.78;5032769;28;104989;-80
2023/09/13 10:25:28;;;;;;;2.20;1.40;;;;;;;24.77;100.00;96375.72;5030193;28;102259;-80
2023/09/13 10:27:55;;;;;;;1.47;1.37;;;;;;;25.38;100.00;96379.97;5030361;28;104097;-80
2023/09/13 10:30:27;;;;;;;3.13;1.33;;;;;;;25.83;100.00;96383.19;5029606;28;105177;-80
2023/09/13 10:33:50;;;;;;;1.77;1.30;;;;;;;25.88;100.00;96376.72;5029525;28;101929;-78
2023/09/13 10:36:23;;;;;;;1.60;1.40;;;;;;;25.47;100.00;96377.09;5029508;28;105359;-81
2023/09/13 10:39:04;;;;;;;2.53;1.50;;;;;;;25.40;100.00;96372.22;5030094;28;105406;-77
2023/09/13 10:41:38;;;;;;;1.47;1.37;;;;;;;25.80;100.00;96366.75;5030194;28;102150;-77
2023/09/13 10:44:08;;;;;;;1.47;1.33;;;;;;;26.06;100.00;96364.41;5029600;28;105543;-76
2023/09/13 10:46:37;;;;;;;1.60;1.50;;;;;;;26.09;100.00;96353.59;5032370;28;105985;-77
2023/09/13 10:49:05;;;;;;;1.60;1.50;;;;;;;25.87;100.00;96354.13;5030119;28;105617;-78
2023/09/13 10:51:34;;;;;;;2.47;1.40;;;;;;;25.99;100.00;96353.31;5029164;27;103924;-81
2023/09/13 10:54:02;;;;;;;1.30;1.20;;;;;;;26.13;100.00;96353.66;5030038;28;102480;-77
2023/09/13 10:56:30;;;;;;;1.50;1.40;;;;;;;26.00;100.00;96352.94;5029636;28;105409;-84
2023/09/13 10:58:58;;;;;;;1.90;1.40;;;;;;;26.02;100.00;96347.94;5029290;28;105241;-80
2023/09/13 11:01:26;;;;;;;2.47;1.40;;;;;;;25.89;100.00;96345.59;5029520;28;102397;-79
2023/09/13 11:03:55;;;;;;;1.60;1.50;;;;;;;26.02;100.00;96338.97;5030452;28;102774;-78
2023/09/13 11:06:24;;;;;;;1.50;1.40;;;;;;;26.59;100.00;96340.06;5028741;28;105515;-79
2023/09/13 11:08:51;;;;;;;1.57;1.47;;;;;;;26.83;100.00;96337.16;5032964;28;102332;-78
2023/09/13 11:11:22;;;;;;;1.70;1.60;;;;;;;27.05;100.00;96346.59;5028672;28;105749;-78
2023/09/13 11:13:53;;;;;;;1.43;1.27;;;;;;;27.06;100.00;96343.53;5030055;28;101818;-78
2023/09/13 11:16:23;;;;;;;1.90;1.80;;;;;;;26.65;100.00;96344.13;5027843;27;105998;-77
2023/09/13 11:18:52;;;;;;;1.67;1.40;;;;;;;26.54;100.00;96345.00;5028958;28;105946;-77
2023/09/13 11:21:25;;;;;;;1.63;1.53;;;;;;;26.27;100.00;96332.25;5029431;28;101917;-77
2023/09/13 11:23:53;;;;;;;1.73;1.60;;;;;;;25.47;100.00;96336.25;5028804;28;105271;-77